sensor_id;sensor_type;location;lat;lon;timestamp;P1;durP1;ratioP1;P2;durP2;ratioP2
46084;SDS011;31823;47.032;8.310;2022-08-25T00:01:37;6.80;;;4.50;;
46084;SDS011;31823;47.032;8.310;2022-08-25T00:04:07;6.47;;;4.55;;
46084;SDS011;31823;47.032;8.310;2022-08-25T00:06:36;5.20;;;4.70;;
46084;SDS011;31823;47.032;8.310;2022-08-25T00:09:04;6.95;;;4.82;;
46084;SDS011;31823;47.032;8.310;2022-08-25T00:11:30;9.68;;;4.93;;
46084;SDS011;31823;47.032;8.310;2022-08-25T00:13:59;6.35;;;5.00;;
46084;SDS011;31823;47.032;8.310;2022-08-25T00:16:28;6.35;;;4.90;;
46084;SDS011;31823;47.032;8.310;2022-08-25T00:18:56;5.35;;;4.57;;
46084;SDS011;31823;47.032;8.310;2022-08-25T00:21:25;8.88;;;4.50;;
46084;SDS011;31823;47.032;8.310;2022-08-25T00:23:52;7.55;;;4.63;;
46084;SDS011;31823;47.032;8.310;2022-08-25T00:26:18;5.47;;;4.80;;
46084;SDS011;31823;47.032;8.310;2022-08-25T00:28:44;7.30;;;5.13;;
46084;SDS011;31823;47.032;8.310;2022-08-25T00:31:13;6.53;;;4.90;;
46084;SDS011;31823;47.032;8.310;2022-08-25T00:33:40;6.38;;;4.82;;
46084;SDS011;31823;47.032;8.310;2022-08-25T00:36:08;8.38;;;4.70;;
46084;SDS011;31823;47.032;8.310;2022-08-25T00:38:36;6.93;;;4.90;;
46084;SDS011;31823;47.032;8.310;2022-08-25T00:41:07;7.82;;;5.30;;
46084;SDS011;31823;47.032;8.310;2022-08-25T00:43:43;4.72;;;4.32;;
46084;SDS011;31823;47.032;8.310;2022-08-25T00:46:18;5.38;;;4.82;;
46084;SDS011;31823;47.032;8.310;2022-08-25T00:48:55;4.75;;;4.22;;
46084;SDS011;31823;47.032;8.310;2022-08-25T00:51:29;5.32;;;4.82;;
46084;SDS011;31823;47.032;8.310;2022-08-25T00:54:07;7.45;;;4.60;;
46084;SDS011;31823;47.032;8.310;2022-08-25T00:56:35;5.18;;;4.60;;
46084;SDS011;31823;47.032;8.310;2022-08-25T00:59:02;6.03;;;4.80;;
46084;SDS011;31823;47.032;8.310;2022-08-25T01:01:29;13.07;;;5.00;;
46084;SDS011;31823;47.032;8.310;2022-08-25T01:03:55;5.50;;;4.90;;
46084;SDS011;31823;47.032;8.310;2022-08-25T01:06:20;7.85;;;5.15;;
46084;SDS011;31823;47.032;8.310;2022-08-25T01:08:47;6.28;;;4.50;;
46084;SDS011;31823;47.032;8.310;2022-08-25T01:11:13;5.32;;;4.78;;
46084;SDS011;31823;47.032;8.310;2022-08-25T01:16:09;7.75;;;4.60;;
46084;SDS011;31823;47.032;8.310;2022-08-25T01:18:47;7.82;;;5.03;;
46084;SDS011;31823;47.032;8.310;2022-08-25T01:21:20;7.25;;;5.20;;
46084;SDS011;31823;47.032;8.310;2022-08-25T01:23:46;6.75;;;5.10;;
46084;SDS011;31823;47.032;8.310;2022-08-25T01:26:16;5.70;;;5.10;;
46084;SDS011;31823;47.032;8.310;2022-08-25T01:28:44;6.22;;;4.70;;
46084;SDS011;31823;47.032;8.310;2022-08-25T01:31:32;7.35;;;5.38;;
46084;SDS011;31823;47.032;8.310;2022-08-25T01:33:58;6.72;;;5.25;;
46084;SDS011;31823;47.032;8.310;2022-08-25T01:36:25;7.53;;;5.28;;
46084;SDS011;31823;47.032;8.310;2022-08-25T01:38:52;6.15;;;4.95;;
46084;SDS011;31823;47.032;8.310;2022-08-25T01:41:34;6.88;;;5.10;;
46084;SDS011;31823;47.032;8.310;2022-08-25T01:44:08;6.50;;;4.88;;
46084;SDS011;31823;47.032;8.310;2022-08-25T01:46:34;7.22;;;5.35;;
46084;SDS011;31823;47.032;8.310;2022-08-25T01:49:01;7.20;;;5.05;;
46084;SDS011;31823;47.032;8.310;2022-08-25T01:51:29;8.77;;;4.88;;
46084;SDS011;31823;47.032;8.310;2022-08-25T01:54:01;6.88;;;5.35;;
46084;SDS011;31823;47.032;8.310;2022-08-25T01:56:27;6.10;;;4.85;;
46084;SDS011;31823;47.032;8.310;2022-08-25T01:58:52;6.13;;;4.90;;
46084;SDS011;31823;47.032;8.310;2022-08-25T02:01:20;6.68;;;5.22;;
46084;SDS011;31823;47.032;8.310;2022-08-25T02:03:48;9.93;;;5.55;;
46084;SDS011;31823;47.032;8.310;2022-08-25T02:06:17;6.80;;;5.40;;
46084;SDS011;31823;47.032;8.310;2022-08-25T02:08:50;6.63;;;5.40;;
46084;SDS011;31823;47.032;8.310;2022-08-25T02:11:22;8.57;;;5.38;;
46084;SDS011;31823;47.032;8.310;2022-08-25T02:13:49;6.55;;;5.07;;
46084;SDS011;31823;47.032;8.310;2022-08-25T02:16:20;5.82;;;5.00;;
46084;SDS011;31823;47.032;8.310;2022-08-25T02:18:49;7.43;;;4.93;;
46084;SDS011;31823;47.032;8.310;2022-08-25T02:21:15;5.47;;;4.97;;
46084;SDS011;31823;47.032;8.310;2022-08-25T02:23:42;6.40;;;5.10;;
46084;SDS011;31823;47.032;8.310;2022-08-25T02:26:08;8.88;;;5.55;;
46084;SDS011;31823;47.032;8.310;2022-08-25T02:28:34;6.43;;;5.15;;
46084;SDS011;31823;47.032;8.310;2022-08-25T02:31:03;6.97;;;4.70;;
46084;SDS011;31823;47.032;8.310;2022-08-25T02:33:29;7.28;;;4.95;;
46084;SDS011;31823;47.032;8.310;2022-08-25T02:35:58;5.68;;;5.18;;
46084;SDS011;31823;47.032;8.310;2022-08-25T02:38:25;6.88;;;5.70;;
46084;SDS011;31823;47.032;8.310;2022-08-25T02:40:53;7.30;;;5.45;;
46084;SDS011;31823;47.032;8.310;2022-08-25T02:43:20;6.75;;;5.60;;
46084;SDS011;31823;47.032;8.310;2022-08-25T02:45:45;6.78;;;5.13;;
46084;SDS011;31823;47.032;8.310;2022-08-25T02:48:11;7.13;;;5.50;;
46084;SDS011;31823;47.032;8.310;2022-08-25T02:50:37;7.78;;;5.13;;
46084;SDS011;31823;47.032;8.310;2022-08-25T02:53:04;6.28;;;5.13;;
46084;SDS011;31823;47.032;8.310;2022-08-25T02:55:30;7.97;;;4.80;;
46084;SDS011;31823;47.032;8.310;2022-08-25T02:57:57;5.78;;;4.90;;
46084;SDS011;31823;47.032;8.310;2022-08-25T03:00:23;9.50;;;4.80;;
46084;SDS011;31823;47.032;8.310;2022-08-25T03:02:48;11.88;;;5.60;;
46084;SDS011;31823;47.032;8.310;2022-08-25T03:05:14;7.32;;;5.18;;
46084;SDS011;31823;47.032;8.310;2022-08-25T03:07:40;6.90;;;5.10;;
46084;SDS011;31823;47.032;8.310;2022-08-25T03:10:08;8.25;;;5.05;;
46084;SDS011;31823;47.032;8.310;2022-08-25T03:12:36;8.38;;;5.03;;
46084;SDS011;31823;47.032;8.310;2022-08-25T03:15:03;10.27;;;5.13;;
46084;SDS011;31823;47.032;8.310;2022-08-25T03:17:29;8.73;;;5.28;;
46084;SDS011;31823;47.032;8.310;2022-08-25T03:19:56;5.82;;;4.93;;
46084;SDS011;31823;47.032;8.310;2022-08-25T03:22:21;6.75;;;4.88;;
46084;SDS011;31823;47.032;8.310;2022-08-25T03:24:47;7.28;;;5.85;;
46084;SDS011;31823;47.032;8.310;2022-08-25T03:27:13;6.78;;;6.03;;
46084;SDS011;31823;47.032;8.310;2022-08-25T03:29:39;7.00;;;5.30;;
46084;SDS011;31823;47.032;8.310;2022-08-25T03:32:07;7.43;;;5.00;;
46084;SDS011;31823;47.032;8.310;2022-08-25T03:34:33;8.23;;;5.60;;
46084;SDS011;31823;47.032;8.310;2022-08-25T03:36:59;6.18;;;5.30;;
46084;SDS011;31823;47.032;8.310;2022-08-25T03:39:25;7.40;;;5.15;;
46084;SDS011;31823;47.032;8.310;2022-08-25T03:41:51;6.10;;;5.50;;
46084;SDS011;31823;47.032;8.310;2022-08-25T03:44:18;5.65;;;4.93;;
46084;SDS011;31823;47.032;8.310;2022-08-25T03:46:46;6.50;;;5.25;;
46084;SDS011;31823;47.032;8.310;2022-08-25T03:49:16;5.95;;;5.32;;
46084;SDS011;31823;47.032;8.310;2022-08-25T03:51:45;6.28;;;5.22;;
46084;SDS011;31823;47.032;8.310;2022-08-25T03:54:12;8.20;;;5.60;;
46084;SDS011;31823;47.032;8.310;2022-08-25T03:56:39;6.70;;;5.38;;
46084;SDS011;31823;47.032;8.310;2022-08-25T03:59:05;6.10;;;5.47;;
46084;SDS011;31823;47.032;8.310;2022-08-25T04:01:37;6.80;;;5.25;;
46084;SDS011;31823;47.032;8.310;2022-08-25T04:04:04;7.53;;;5.70;;
46084;SDS011;31823;47.032;8.310;2022-08-25T04:06:32;6.38;;;5.70;;
46084;SDS011;31823;47.032;8.310;2022-08-25T04:08:58;8.48;;;5.53;;
46084;SDS011;31823;47.032;8.310;2022-08-25T04:11:24;6.57;;;5.78;;
46084;SDS011;31823;47.032;8.310;2022-08-25T04:13:51;7.53;;;5.45;;
46084;SDS011;31823;47.032;8.310;2022-08-25T04:16:21;6.53;;;5.78;;
46084;SDS011;31823;47.032;8.310;2022-08-25T04:18:48;7.30;;;5.80;;
46084;SDS011;31823;47.032;8.310;2022-08-25T04:21:15;6.38;;;5.65;;
46084;SDS011;31823;47.032;8.310;2022-08-25T04:23:44;7.07;;;5.72;;
46084;SDS011;31823;47.032;8.310;2022-08-25T04:26:27;11.48;;;6.45;;
46084;SDS011;31823;47.032;8.310;2022-08-25T04:28:57;7.70;;;6.22;;
46084;SDS011;31823;47.032;8.310;2022-08-25T04:31:24;10.57;;;6.60;;
46084;SDS011;31823;47.032;8.310;2022-08-25T04:33:53;7.25;;;5.93;;
46084;SDS011;31823;47.032;8.310;2022-08-25T04:36:19;7.78;;;6.28;;
46084;SDS011;31823;47.032;8.310;2022-08-25T04:38:45;6.28;;;5.63;;
46084;SDS011;31823;47.032;8.310;2022-08-25T04:41:13;7.95;;;5.70;;
46084;SDS011;31823;47.032;8.310;2022-08-25T04:43:40;7.68;;;5.63;;
46084;SDS011;31823;47.032;8.310;2022-08-25T04:46:11;7.05;;;5.68;;
46084;SDS011;31823;47.032;8.310;2022-08-25T04:48:39;6.32;;;5.55;;
46084;SDS011;31823;47.032;8.310;2022-08-25T04:51:06;6.40;;;5.50;;
46084;SDS011;31823;47.032;8.310;2022-08-25T04:53:34;8.13;;;6.18;;
46084;SDS011;31823;47.032;8.310;2022-08-25T04:56:04;7.68;;;6.07;;
46084;SDS011;31823;47.032;8.310;2022-08-25T04:58:32;7.60;;;5.75;;
46084;SDS011;31823;47.032;8.310;2022-08-25T05:01:04;8.60;;;6.15;;
46084;SDS011;31823;47.032;8.310;2022-08-25T05:03:35;9.02;;;6.28;;
46084;SDS011;31823;47.032;8.310;2022-08-25T05:06:02;6.53;;;5.43;;
46084;SDS011;31823;47.032;8.310;2022-08-25T05:08:28;6.97;;;6.18;;
46084;SDS011;31823;47.032;8.310;2022-08-25T05:10:55;7.25;;;5.72;;
46084;SDS011;31823;47.032;8.310;2022-08-25T05:13:21;6.18;;;5.57;;
46084;SDS011;31823;47.032;8.310;2022-08-25T05:15:55;6.68;;;6.00;;
46084;SDS011;31823;47.032;8.310;2022-08-25T05:18:22;9.05;;;6.45;;
46084;SDS011;31823;47.032;8.310;2022-08-25T05:20:50;7.38;;;6.05;;
46084;SDS011;31823;47.032;8.310;2022-08-25T05:23:18;7.72;;;6.20;;
46084;SDS011;31823;47.032;8.310;2022-08-25T05:25:45;6.40;;;5.72;;
46084;SDS011;31823;47.032;8.310;2022-08-25T05:28:11;7.20;;;6.15;;
46084;SDS011;31823;47.032;8.310;2022-08-25T05:30:38;10.60;;;6.18;;
46084;SDS011;31823;47.032;8.310;2022-08-25T05:33:05;6.85;;;5.82;;
46084;SDS011;31823;47.032;8.310;2022-08-25T05:35:32;8.18;;;6.47;;
46084;SDS011;31823;47.032;8.310;2022-08-25T05:37:57;8.90;;;6.40;;
46084;SDS011;31823;47.032;8.310;2022-08-25T05:40:23;8.23;;;5.95;;
46084;SDS011;31823;47.032;8.310;2022-08-25T05:42:49;6.45;;;5.53;;
46084;SDS011;31823;47.032;8.310;2022-08-25T05:45:15;8.15;;;6.30;;
46084;SDS011;31823;47.032;8.310;2022-08-25T05:47:41;7.63;;;6.63;;
46084;SDS011;31823;47.032;8.310;2022-08-25T05:50:07;8.45;;;6.60;;
46084;SDS011;31823;47.032;8.310;2022-08-25T05:52:34;8.23;;;6.18;;
46084;SDS011;31823;47.032;8.310;2022-08-25T05:55:00;10.25;;;6.70;;
46084;SDS011;31823;47.032;8.310;2022-08-25T05:57:25;8.98;;;6.60;;
46084;SDS011;31823;47.032;8.310;2022-08-25T05:59:51;8.50;;;6.43;;
46084;SDS011;31823;47.032;8.310;2022-08-25T06:02:17;8.02;;;6.53;;
46084;SDS011;31823;47.032;8.310;2022-08-25T06:05:01;8.88;;;6.40;;
46084;SDS011;31823;47.032;8.310;2022-08-25T06:07:27;8.90;;;6.57;;
46084;SDS011;31823;47.032;8.310;2022-08-25T06:09:53;9.43;;;7.18;;
46084;SDS011;31823;47.032;8.310;2022-08-25T06:12:19;10.00;;;7.55;;
46084;SDS011;31823;47.032;8.310;2022-08-25T06:14:45;6.88;;;6.15;;
46084;SDS011;31823;47.032;8.310;2022-08-25T06:17:12;7.78;;;6.78;;
46084;SDS011;31823;47.032;8.310;2022-08-25T06:19:38;8.15;;;6.65;;
46084;SDS011;31823;47.032;8.310;2022-08-25T06:22:04;8.68;;;7.07;;
46084;SDS011;31823;47.032;8.310;2022-08-25T06:24:30;7.63;;;6.82;;
46084;SDS011;31823;47.032;8.310;2022-08-25T06:26:56;8.10;;;6.93;;
46084;SDS011;31823;47.032;8.310;2022-08-25T06:29:22;7.72;;;6.53;;
46084;SDS011;31823;47.032;8.310;2022-08-25T06:31:48;7.20;;;6.32;;
46084;SDS011;31823;47.032;8.310;2022-08-25T06:34:14;7.45;;;6.22;;
46084;SDS011;31823;47.032;8.310;2022-08-25T06:36:41;12.45;;;6.57;;
46084;SDS011;31823;47.032;8.310;2022-08-25T06:39:07;7.80;;;6.28;;
46084;SDS011;31823;47.032;8.310;2022-08-25T06:41:33;6.07;;;5.53;;
46084;SDS011;31823;47.032;8.310;2022-08-25T06:43:59;7.85;;;6.55;;
46084;SDS011;31823;47.032;8.310;2022-08-25T06:46:25;8.20;;;6.68;;
46084;SDS011;31823;47.032;8.310;2022-08-25T06:48:53;8.68;;;6.18;;
46084;SDS011;31823;47.032;8.310;2022-08-25T06:51:20;8.32;;;6.25;;
46084;SDS011;31823;47.032;8.310;2022-08-25T06:53:47;7.03;;;6.18;;
46084;SDS011;31823;47.032;8.310;2022-08-25T06:56:14;10.68;;;5.85;;
46084;SDS011;31823;47.032;8.310;2022-08-25T06:58:41;7.90;;;5.75;;
46084;SDS011;31823;47.032;8.310;2022-08-25T07:03:41;6.13;;;5.15;;
46084;SDS011;31823;47.032;8.310;2022-08-25T07:06:07;5.82;;;5.22;;
46084;SDS011;31823;47.032;8.310;2022-08-25T07:08:34;8.55;;;5.40;;
46084;SDS011;31823;47.032;8.310;2022-08-25T07:11:19;7.07;;;5.30;;
46084;SDS011;31823;47.032;8.310;2022-08-25T07:13:45;7.35;;;5.05;;
46084;SDS011;31823;47.032;8.310;2022-08-25T07:16:12;7.13;;;5.00;;
46084;SDS011;31823;47.032;8.310;2022-08-25T07:18:39;8.30;;;5.43;;
46084;SDS011;31823;47.032;8.310;2022-08-25T07:21:06;6.82;;;5.60;;
46084;SDS011;31823;47.032;8.310;2022-08-25T07:23:31;6.22;;;5.50;;
46084;SDS011;31823;47.032;8.310;2022-08-25T07:26:06;5.25;;;4.75;;
46084;SDS011;31823;47.032;8.310;2022-08-25T07:28:36;7.20;;;5.43;;
46084;SDS011;31823;47.032;8.310;2022-08-25T07:31:02;7.65;;;5.57;;
46084;SDS011;31823;47.032;8.310;2022-08-25T07:33:28;6.25;;;4.95;;
46084;SDS011;31823;47.032;8.310;2022-08-25T07:35:54;6.13;;;5.20;;
46084;SDS011;31823;47.032;8.310;2022-08-25T07:38:21;5.90;;;4.93;;
46084;SDS011;31823;47.032;8.310;2022-08-25T07:40:47;6.35;;;5.30;;
46084;SDS011;31823;47.032;8.310;2022-08-25T07:43:19;6.95;;;5.30;;
46084;SDS011;31823;47.032;8.310;2022-08-25T07:45:46;6.47;;;5.65;;
46084;SDS011;31823;47.032;8.310;2022-08-25T07:48:12;7.13;;;5.07;;
46084;SDS011;31823;47.032;8.310;2022-08-25T07:50:41;6.72;;;6.03;;
46084;SDS011;31823;47.032;8.310;2022-08-25T07:53:09;8.18;;;5.32;;
46084;SDS011;31823;47.032;8.310;2022-08-25T07:55:36;10.05;;;6.55;;
46084;SDS011;31823;47.032;8.310;2022-08-25T07:58:03;7.38;;;5.95;;
46084;SDS011;31823;47.032;8.310;2022-08-25T08:00:31;5.93;;;4.88;;
46084;SDS011;31823;47.032;8.310;2022-08-25T08:03:04;7.20;;;4.75;;
46084;SDS011;31823;47.032;8.310;2022-08-25T08:05:31;5.97;;;5.07;;
46084;SDS011;31823;47.032;8.310;2022-08-25T08:07:57;6.45;;;4.95;;
46084;SDS011;31823;47.032;8.310;2022-08-25T08:10:25;8.32;;;5.25;;
46084;SDS011;31823;47.032;8.310;2022-08-25T08:12:51;10.07;;;6.15;;
46084;SDS011;31823;47.032;8.310;2022-08-25T08:15:17;7.55;;;5.82;;
46084;SDS011;31823;47.032;8.310;2022-08-25T08:17:44;7.72;;;5.88;;
46084;SDS011;31823;47.032;8.310;2022-08-25T08:20:10;6.75;;;6.03;;
46084;SDS011;31823;47.032;8.310;2022-08-25T08:22:38;6.88;;;6.13;;
46084;SDS011;31823;47.032;8.310;2022-08-25T08:25:06;7.20;;;5.90;;
46084;SDS011;31823;47.032;8.310;2022-08-25T08:27:34;7.68;;;6.68;;
46084;SDS011;31823;47.032;8.310;2022-08-25T08:30:00;9.35;;;6.05;;
46084;SDS011;31823;47.032;8.310;2022-08-25T08:32:28;6.80;;;5.70;;
46084;SDS011;31823;47.032;8.310;2022-08-25T08:34:53;7.85;;;6.57;;
46084;SDS011;31823;47.032;8.310;2022-08-25T08:37:19;8.93;;;6.03;;
46084;SDS011;31823;47.032;8.310;2022-08-25T08:39:46;10.13;;;6.63;;
46084;SDS011;31823;47.032;8.310;2022-08-25T08:42:25;6.70;;;6.00;;
46084;SDS011;31823;47.032;8.310;2022-08-25T08:45:15;12.48;;;7.18;;
46084;SDS011;31823;47.032;8.310;2022-08-25T08:51:21;8.90;;;7.30;;
46084;SDS011;31823;47.032;8.310;2022-08-25T08:53:52;8.90;;;6.72;;
46084;SDS011;31823;47.032;8.310;2022-08-25T08:56:22;8.07;;;5.68;;
46084;SDS011;31823;47.032;8.310;2022-08-25T08:59:19;8.75;;;6.03;;
46084;SDS011;31823;47.032;8.310;2022-08-25T09:01:50;7.47;;;6.55;;
46084;SDS011;31823;47.032;8.310;2022-08-25T09:07:01;8.02;;;6.28;;
46084;SDS011;31823;47.032;8.310;2022-08-25T09:09:34;7.32;;;6.63;;
46084;SDS011;31823;47.032;8.310;2022-08-25T09:25:10;9.85;;;6.95;;
46084;SDS011;31823;47.032;8.310;2022-08-25T09:28:07;8.88;;;7.38;;
46084;SDS011;31823;47.032;8.310;2022-08-25T09:30:53;12.48;;;8.93;;
46084;SDS011;31823;47.032;8.310;2022-08-25T09:33:27;9.40;;;8.40;;
46084;SDS011;31823;47.032;8.310;2022-08-25T09:35:55;12.73;;;7.80;;
46084;SDS011;31823;47.032;8.310;2022-08-25T09:38:22;7.70;;;6.82;;
46084;SDS011;31823;47.032;8.310;2022-08-25T09:40:49;9.13;;;6.80;;
46084;SDS011;31823;47.032;8.310;2022-08-25T09:46:08;7.68;;;6.80;;
46084;SDS011;31823;47.032;8.310;2022-08-25T09:48:51;10.07;;;7.35;;
46084;SDS011;31823;47.032;8.310;2022-08-25T09:56:25;7.18;;;6.05;;
46084;SDS011;31823;47.032;8.310;2022-08-25T09:58:53;9.68;;;7.28;;
46084;SDS011;31823;47.032;8.310;2022-08-25T10:01:21;7.82;;;6.85;;
46084;SDS011;31823;47.032;8.310;2022-08-25T10:06:25;8.20;;;5.93;;
46084;SDS011;31823;47.032;8.310;2022-08-25T10:08:58;6.40;;;5.80;;
46084;SDS011;31823;47.032;8.310;2022-08-25T10:14:14;5.80;;;5.20;;
46084;SDS011;31823;47.032;8.310;2022-08-25T10:16:43;8.63;;;6.85;;
46084;SDS011;31823;47.032;8.310;2022-08-25T10:19:25;9.18;;;5.90;;
46084;SDS011;31823;47.032;8.310;2022-08-25T10:24:30;7.47;;;6.47;;
46084;SDS011;31823;47.032;8.310;2022-08-25T10:35:29;9.27;;;6.15;;
46084;SDS011;31823;47.032;8.310;2022-08-25T10:45:49;9.55;;;6.85;;
46084;SDS011;31823;47.032;8.310;2022-08-25T10:51:02;5.88;;;5.13;;
46084;SDS011;31823;47.032;8.310;2022-08-25T10:56:28;8.73;;;7.43;;
46084;SDS011;31823;47.032;8.310;2022-08-25T10:59:25;8.55;;;6.43;;
46084;SDS011;31823;47.032;8.310;2022-08-25T11:05:23;10.90;;;6.72;;
46084;SDS011;31823;47.032;8.310;2022-08-25T11:07:55;10.15;;;8.02;;
46084;SDS011;31823;47.032;8.310;2022-08-25T11:13:22;9.77;;;8.23;;
46084;SDS011;31823;47.032;8.310;2022-08-25T11:15:59;7.00;;;6.30;;
46084;SDS011;31823;47.032;8.310;2022-08-25T11:18:27;8.10;;;6.82;;
46084;SDS011;31823;47.032;8.310;2022-08-25T11:20:59;14.35;;;8.48;;
46084;SDS011;31823;47.032;8.310;2022-08-25T11:23:38;10.43;;;6.82;;
46084;SDS011;31823;47.032;8.310;2022-08-25T11:26:16;9.38;;;7.72;;
46084;SDS011;31823;47.032;8.310;2022-08-25T11:31:50;7.32;;;6.63;;
46084;SDS011;31823;47.032;8.310;2022-08-25T11:34:17;6.70;;;6.07;;
46084;SDS011;31823;47.032;8.310;2022-08-25T11:37:06;10.90;;;8.88;;
46084;SDS011;31823;47.032;8.310;2022-08-25T11:50:54;8.95;;;7.82;;
46084;SDS011;31823;47.032;8.310;2022-08-25T11:53:30;7.35;;;6.45;;
46084;SDS011;31823;47.032;8.310;2022-08-25T11:56:08;9.45;;;7.20;;
46084;SDS011;31823;47.032;8.310;2022-08-25T11:58:44;9.13;;;7.30;;
46084;SDS011;31823;47.032;8.310;2022-08-25T12:06:37;9.55;;;6.80;;
46084;SDS011;31823;47.032;8.310;2022-08-25T12:09:29;7.88;;;6.93;;
46084;SDS011;31823;47.032;8.310;2022-08-25T12:11:55;8.20;;;7.35;;
46084;SDS011;31823;47.032;8.310;2022-08-25T12:27:26;7.00;;;6.22;;
46084;SDS011;31823;47.032;8.310;2022-08-25T12:30:40;7.13;;;6.00;;
46084;SDS011;31823;47.032;8.310;2022-08-25T12:42:03;8.70;;;7.25;;
46084;SDS011;31823;47.032;8.310;2022-08-25T12:44:44;8.15;;;6.20;;
46084;SDS011;31823;47.032;8.310;2022-08-25T12:49:52;9.07;;;7.10;;
46084;SDS011;31823;47.032;8.310;2022-08-25T12:55:04;7.97;;;6.45;;
46084;SDS011;31823;47.032;8.310;2022-08-25T12:57:45;7.10;;;6.18;;
46084;SDS011;31823;47.032;8.310;2022-08-25T13:00:24;6.22;;;5.72;;
46084;SDS011;31823;47.032;8.310;2022-08-25T13:17:06;6.50;;;5.57;;
46084;SDS011;31823;47.032;8.310;2022-08-25T13:19:32;8.07;;;7.07;;
46084;SDS011;31823;47.032;8.310;2022-08-25T13:21:59;6.03;;;5.43;;
46084;SDS011;31823;47.032;8.310;2022-08-25T13:24:34;5.90;;;5.40;;
46084;SDS011;31823;47.032;8.310;2022-08-25T13:27:04;6.63;;;6.03;;
46084;SDS011;31823;47.032;8.310;2022-08-25T13:29:34;6.55;;;5.95;;
46084;SDS011;31823;47.032;8.310;2022-08-25T13:32:12;7.75;;;5.97;;
46084;SDS011;31823;47.032;8.310;2022-08-25T13:34:41;6.15;;;5.40;;
46084;SDS011;31823;47.032;8.310;2022-08-25T13:37:14;6.10;;;5.60;;
46084;SDS011;31823;47.032;8.310;2022-08-25T13:42:59;6.35;;;5.63;;
46084;SDS011;31823;47.032;8.310;2022-08-25T13:45:31;7.88;;;5.63;;
46084;SDS011;31823;47.032;8.310;2022-08-25T13:48:03;6.20;;;5.70;;
46084;SDS011;31823;47.032;8.310;2022-08-25T13:50:33;6.18;;;5.38;;
46084;SDS011;31823;47.032;8.310;2022-08-25T13:53:23;6.38;;;5.70;;
46084;SDS011;31823;47.032;8.310;2022-08-25T13:55:51;6.25;;;4.93;;
46084;SDS011;31823;47.032;8.310;2022-08-25T13:58:20;9.40;;;6.10;;
46084;SDS011;31823;47.032;8.310;2022-08-25T14:03:40;6.13;;;5.20;;
46084;SDS011;31823;47.032;8.310;2022-08-25T14:08:44;6.05;;;5.55;;
46084;SDS011;31823;47.032;8.310;2022-08-25T14:11:15;8.63;;;5.40;;
46084;SDS011;31823;47.032;8.310;2022-08-25T14:13:57;6.18;;;5.57;;
46084;SDS011;31823;47.032;8.310;2022-08-25T14:16:27;8.43;;;6.60;;
46084;SDS011;31823;47.032;8.310;2022-08-25T14:18:56;8.30;;;5.50;;
46084;SDS011;31823;47.032;8.310;2022-08-25T14:21:25;5.32;;;4.88;;
46084;SDS011;31823;47.032;8.310;2022-08-25T14:23:53;6.22;;;5.53;;
46084;SDS011;31823;47.032;8.310;2022-08-25T14:26:20;5.45;;;5.05;;
46084;SDS011;31823;47.032;8.310;2022-08-25T14:28:46;6.60;;;5.03;;
46084;SDS011;31823;47.032;8.310;2022-08-25T14:31:14;10.90;;;4.60;;
46084;SDS011;31823;47.032;8.310;2022-08-25T14:33:50;6.00;;;5.20;;
46084;SDS011;31823;47.032;8.310;2022-08-25T14:36:17;5.63;;;5.13;;
46084;SDS011;31823;47.032;8.310;2022-08-25T14:38:42;10.68;;;5.03;;
46084;SDS011;31823;47.032;8.310;2022-08-25T14:41:08;7.25;;;5.32;;
46084;SDS011;31823;47.032;8.310;2022-08-25T14:43:34;6.00;;;5.22;;
46084;SDS011;31823;47.032;8.310;2022-08-25T14:46:02;7.00;;;5.40;;
46084;SDS011;31823;47.032;8.310;2022-08-25T14:48:39;5.93;;;5.32;;
46084;SDS011;31823;47.032;8.310;2022-08-25T14:51:08;7.57;;;5.28;;
46084;SDS011;31823;47.032;8.310;2022-08-25T14:53:36;6.15;;;5.55;;
46084;SDS011;31823;47.032;8.310;2022-08-25T14:56:01;5.68;;;5.15;;
46084;SDS011;31823;47.032;8.310;2022-08-25T14:58:27;6.45;;;4.80;;
46084;SDS011;31823;47.032;8.310;2022-08-25T15:00:53;5.93;;;4.70;;
46084;SDS011;31823;47.032;8.310;2022-08-25T15:03:26;9.15;;;5.15;;
46084;SDS011;31823;47.032;8.310;2022-08-25T15:05:54;8.20;;;5.55;;
46084;SDS011;31823;47.032;8.310;2022-08-25T15:08:20;6.38;;;5.28;;
46084;SDS011;31823;47.032;8.310;2022-08-25T15:11:04;5.15;;;4.72;;
46084;SDS011;31823;47.032;8.310;2022-08-25T15:13:30;11.00;;;5.15;;
46084;SDS011;31823;47.032;8.310;2022-08-25T15:15:56;6.28;;;5.22;;
46084;SDS011;31823;47.032;8.310;2022-08-25T15:18:22;6.47;;;5.85;;
46084;SDS011;31823;47.032;8.310;2022-08-25T15:20:49;5.30;;;4.80;;
46084;SDS011;31823;47.032;8.310;2022-08-25T15:23:16;5.88;;;4.90;;
46084;SDS011;31823;47.032;8.310;2022-08-25T15:25:42;5.80;;;5.30;;
46084;SDS011;31823;47.032;8.310;2022-08-25T15:28:11;6.57;;;4.90;;
46084;SDS011;31823;47.032;8.310;2022-08-25T15:30:37;7.78;;;5.22;;
46084;SDS011;31823;47.032;8.310;2022-08-25T15:33:03;5.60;;;4.65;;
46084;SDS011;31823;47.032;8.310;2022-08-25T15:35:29;9.98;;;5.35;;
46084;SDS011;31823;47.032;8.310;2022-08-25T15:37:54;6.68;;;4.90;;
46084;SDS011;31823;47.032;8.310;2022-08-25T15:40:20;5.35;;;4.85;;
46084;SDS011;31823;47.032;8.310;2022-08-25T15:42:46;7.32;;;5.22;;
46084;SDS011;31823;47.032;8.310;2022-08-25T15:45:11;5.82;;;5.20;;
46084;SDS011;31823;47.032;8.310;2022-08-25T15:47:38;6.95;;;5.28;;
46084;SDS011;31823;47.032;8.310;2022-08-25T15:50:05;6.13;;;5.47;;
46084;SDS011;31823;47.032;8.310;2022-08-25T15:52:34;6.10;;;5.50;;
46084;SDS011;31823;47.032;8.310;2022-08-25T15:55:00;5.55;;;5.05;;
46084;SDS011;31823;47.032;8.310;2022-08-25T15:57:26;6.15;;;4.90;;
46084;SDS011;31823;47.032;8.310;2022-08-25T15:59:53;8.07;;;6.00;;
46084;SDS011;31823;47.032;8.310;2022-08-25T16:02:19;5.30;;;4.80;;
46084;SDS011;31823;47.032;8.310;2022-08-25T16:04:46;7.88;;;5.30;;
46084;SDS011;31823;47.032;8.310;2022-08-25T16:07:12;6.05;;;5.40;;
46084;SDS011;31823;47.032;8.310;2022-08-25T16:09:38;5.97;;;5.32;;
46084;SDS011;31823;47.032;8.310;2022-08-25T16:12:04;6.13;;;5.18;;
46084;SDS011;31823;47.032;8.310;2022-08-25T16:14:30;6.05;;;5.45;;
46084;SDS011;31823;47.032;8.310;2022-08-25T16:16:56;6.15;;;5.53;;
46084;SDS011;31823;47.032;8.310;2022-08-25T16:19:21;6.95;;;5.57;;
46084;SDS011;31823;47.032;8.310;2022-08-25T16:21:47;6.50;;;5.85;;
46084;SDS011;31823;47.032;8.310;2022-08-25T16:24:12;7.10;;;5.63;;
46084;SDS011;31823;47.032;8.310;2022-08-25T16:26:38;6.18;;;5.57;;
46084;SDS011;31823;47.032;8.310;2022-08-25T16:29:07;10.13;;;6.00;;
46084;SDS011;31823;47.032;8.310;2022-08-25T16:31:33;9.20;;;6.22;;
46084;SDS011;31823;47.032;8.310;2022-08-25T16:33:59;9.88;;;5.88;;
46084;SDS011;31823;47.032;8.310;2022-08-25T16:36:26;7.28;;;5.65;;
46084;SDS011;31823;47.032;8.310;2022-08-25T16:38:52;6.05;;;5.55;;
46084;SDS011;31823;47.032;8.310;2022-08-25T16:41:22;7.00;;;6.05;;
46084;SDS011;31823;47.032;8.310;2022-08-25T16:43:50;7.63;;;6.07;;
46084;SDS011;31823;47.032;8.310;2022-08-25T16:46:17;10.18;;;6.25;;
46084;SDS011;31823;47.032;8.310;2022-08-25T16:48:44;6.60;;;6.00;;
46084;SDS011;31823;47.032;8.310;2022-08-25T16:51:12;6.38;;;5.45;;
46084;SDS011;31823;47.032;8.310;2022-08-25T16:53:40;6.55;;;5.95;;
46084;SDS011;31823;47.032;8.310;2022-08-25T16:56:25;8.05;;;6.05;;
46084;SDS011;31823;47.032;8.310;2022-08-25T16:58:53;6.97;;;5.93;;
46084;SDS011;31823;47.032;8.310;2022-08-25T17:01:20;9.35;;;5.72;;
46084;SDS011;31823;47.032;8.310;2022-08-25T17:03:47;6.78;;;6.07;;
46084;SDS011;31823;47.032;8.310;2022-08-25T17:06:15;9.90;;;6.43;;
46084;SDS011;31823;47.032;8.310;2022-08-25T17:08:41;7.18;;;6.25;;
46084;SDS011;31823;47.032;8.310;2022-08-25T17:11:12;8.95;;;6.05;;
46084;SDS011;31823;47.032;8.310;2022-08-25T17:13:46;7.50;;;5.80;;
46084;SDS011;31823;47.032;8.310;2022-08-25T17:16:15;6.43;;;5.82;;